METAR Data
IDs: Format: Raw Decoded Include TAF

Data at: 0850 UTC 20 Sep 2018

KPRB 200753Z AUTO 07003KT 10SM CLR 13/07 A2983 RMK AO2 SLP096 T01280067 403220094
KPRB 200653Z AUTO 00000KT 10SM CLR 16/08 A2983 RMK AO2 SLP096 T01560083
KPRB 200553Z AUTO VRB06G27KT 10SM CLR 18/08 A2983 RMK AO2 PK WND 23027/0546 SLP095 T01780083 10317 20178 51013
KPRB 200453Z AUTO 31007KT 10SM CLR 19/08 A2983 RMK AO2 SLP096 T01940078
KPRB 200353Z AUTO 31011KT 10SM CLR 21/07 A2981 RMK AO2 SLP091 T02110072
KPRB 200253Z AUTO 31006G15KT 10SM CLR 23/06 A2979 RMK AO2 SLP083 T02330061 53008
KPRB 200153Z AUTO 32010KT 10SM CLR 27/06 A2977 RMK AO2 SLP076 T02670061
KPRB 200053Z AUTO 34009KT 10SM CLR 31/01 A2976 RMK AO2 SLP073 T03060011
KPRB 192353Z AUTO 35007KT 10SM CLR 32/03 A2977 RMK AO2 SLP072 T03170033 10322 20172 56022
KPRB 192253Z AUTO 31004KT 10SM CLR 31/06 A2978 RMK AO2 SLP075 T03110056
KPRB 192153Z AUTO 36004KT 10SM CLR 30/05 A2980 RMK AO2 SLP085 T03000050
KPRB 192053Z AUTO 32004KT 10SM CLR 28/05 A2983 RMK AO2 SLP095 T02830050 56027
KPRB 191953Z AUTO VRB04KT 10SM CLR 26/03 A2986 RMK AO2 SLP105 T02560033
KPRB 191853Z AUTO 32005KT 10SM CLR 22/09 A2988 RMK AO2 SLP114 T02220094
KPRB 191753Z AUTO 29005KT 10SM CLR 17/10 A2991 RMK AO2 SLP125 T01720100 10172 20094 58004
KPRB 191653Z AUTO 00000KT 10SM FEW006 13/10 A2992 RMK AO2 SLP129 T01330100
KPRB 191645Z AUTO 00000KT 10SM SCT006 13/11 A2992 RMK AO2 T01280106
KPRB 191622Z AUTO 02003KT 10SM OVC005 12/11 A2993 RMK AO2 T01170106
KPRB 191553Z AUTO 34005KT 5SM BR OVC002 10/09 A2993 RMK AO2 SLP133 T01000094
KPRB 191545Z AUTO 33006KT 3SM BR OVC002 10/09 A2993 RMK AO2 T01000094
KPRB 191539Z AUTO 32006KT 1 1/2SM BR OVC002 10/09 A2994 RMK AO2 T01000094
KPRB 191528Z AUTO 33005KT 3/4SM BR VV002 09/09 A2994 RMK AO2 T00940094
KPRB 191520Z AUTO 34006KT 1SM BR VV002 09/09 A2994 RMK AO2 T00940094
KPRB 191453Z AUTO 33005KT 1/2SM FG VV002 09/09 A2992 RMK AO2 SLP130 T00940094 53008
KPRB 191405Z AUTO 00000KT 1/4SM FG VV002 09/09 A2991 RMK AO2 T00940089
KPRB 191353Z AUTO 01003KT 1 1/2SM BR OVC002 09/09 A2991 RMK AO2 VIS 1V3 SLP125 T00940094
KPRB 191302Z AUTO 36006KT 1 1/2SM BR OVC002 09/09 A2990 RMK AO2 VIS 1V2 1/2 T00940089
KPRB 191253Z AUTO 32004KT 3/4SM BR VV002 09/09 A2990 RMK AO2 SLP120 T00940089
KPRB 191249Z AUTO 34005KT 1/2SM FG VV002 09/09 A2990 RMK AO2
KPRB 191237Z AUTO 35005KT 1 1/2SM BR OVC002 10/09 A2990 RMK AO2 VIS 3/4V5 T01000094
KPRB 191153Z AUTO 32005KT 6SM BR OVC003 10/09 A2989 RMK AO2 SLP117 T01000094 10133 20100 56003
KPRB 191053Z AUTO 33003KT 5SM BR OVC002 10/09 A2990 RMK AO2 SLP117 T01000094
KPRB 191027Z AUTO 31004KT 8SM BKN003 10/09 A2990 RMK AO2 T01000089
KPRB 191000Z AUTO 32003KT 10SM SCT004 10/09 A2990 RMK AO2 T01000089
KPRB 190953Z AUTO 00000KT 10SM CLR 10/09 A2990 RMK AO2 SLP118 T01000089
KPRB 190853Z AUTO 31005KT 10SM CLR 11/09 A2990 RMK AO2 SLP120 T01060089 51004
KPRB 190753Z AUTO 30006KT 10SM CLR 12/09 A2990 RMK AO2 SLP120 T01170089 403110072
KPRB 190653Z AUTO 30007KT 10SM CLR 12/09 A2990 RMK AO2 SLP119 T01220089
KPRB 190553Z AUTO 31011KT 10SM CLR 13/09 A2989 RMK AO2 SLP118 T01330089 10294 20133 51014
KPRB 190453Z AUTO 32011KT 10SM CLR 14/09 A2989 RMK AO2 SLP118 T01440089
KPRB 190353Z AUTO 30016KT 10SM CLR 16/09 A2987 RMK AO2 SLP112 T01610089
KPRB 190253Z AUTO 30012G19KT 10SM CLR 19/08 A2985 RMK AO2 SLP105 T01940078 53014
KPRB 190153Z AUTO 29011KT 10SM CLR 23/08 A2983 RMK AO2 SLP097 T02280083
KPRB 190053Z AUTO 21009KT 10SM CLR 26/11 A2981 RMK AO2 SLP089 T02610106
KPRB 182353Z AUTO 22008KT 10SM CLR 29/09 A2981 RMK AO2 SLP088 T02940094 10311 20183 56022
KPRB 182253Z AUTO VRB04KT 10SM CLR 30/07 A2983 RMK AO2 SLP094 T03000067
KPRB 182153Z AUTO VRB04KT 10SM CLR 29/07 A2985 RMK AO2 SLP101 T02890072
KPRB 182053Z AUTO 33006KT 10SM CLR 27/08 A2988 RMK AO2 SLP111 T02720083 58027